createdAt,value
2022-10-05T00:00:47.364Z,90.10
2022-10-05T00:03:39.044Z,89.91
2022-10-05T00:06:11.231Z,89.97
2022-10-05T00:08:39.333Z,89.94
2022-10-05T00:11:09.027Z,90.07
2022-10-05T00:13:36.986Z,90.10
2022-10-05T00:16:21.444Z,90.34
2022-10-05T00:18:53.210Z,90.08
2022-10-05T00:21:27.456Z,90.23
2022-10-05T00:23:57.730Z,90.46
2022-10-05T00:26:32.275Z,90.75
2022-10-05T00:29:02.716Z,91.01
2022-10-05T00:31:32.477Z,91.14
2022-10-05T00:34:00.566Z,91.23
2022-10-05T00:36:28.538Z,91.34
2022-10-05T00:38:56.317Z,91.35
2022-10-05T00:41:29.183Z,90.94
2022-10-05T00:43:59.915Z,90.75
2022-10-05T00:46:33.935Z,90.84
2022-10-05T00:49:19.710Z,90.66
2022-10-05T00:52:08.987Z,90.70
2022-10-05T00:54:50.873Z,90.85
2022-10-05T00:57:43.022Z,91.57
2022-10-05T01:00:19.209Z,91.42
2022-10-05T01:02:53.927Z,91.17
2022-10-05T01:05:43.679Z,90.99
2022-10-05T01:08:26.701Z,90.73
2022-10-05T01:11:26.291Z,90.78
2022-10-05T01:14:16.084Z,91.07
2022-10-05T01:16:50.224Z,90.92
2022-10-05T01:19:39.777Z,90.88
2022-10-05T01:22:08.234Z,90.63
2022-10-05T01:24:58.248Z,90.63
2022-10-05T01:27:59.642Z,90.68
2022-10-05T01:30:33.605Z,90.92
2022-10-05T01:33:18.258Z,91.25
2022-10-05T01:36:07.964Z,91.24
2022-10-05T01:39:04.268Z,91.10
2022-10-05T01:42:15.551Z,91.12
2022-10-05T01:44:56.217Z,91.07
2022-10-05T01:47:47.193Z,91.56
2022-10-05T01:50:23.012Z,91.78
2022-10-05T01:53:05.799Z,92.49
2022-10-05T01:55:56.805Z,92.22
2022-10-05T01:58:38.288Z,92.03
2022-10-05T02:01:12.319Z,91.97
2022-10-05T02:03:49.587Z,91.86
2022-10-05T02:06:26.316Z,92.16
2022-10-05T02:09:05.857Z,92.49
2022-10-05T02:11:35.399Z,92.89
2022-10-05T02:14:11.258Z,93.08
2022-10-05T02:16:47.385Z,93.26
2022-10-05T02:19:31.057Z,93.82
2022-10-05T02:22:37.302Z,93.49
2022-10-05T02:25:12.789Z,93.25
2022-10-05T02:27:55.306Z,93.00
2022-10-05T02:30:23.552Z,92.49
2022-10-05T02:33:06.762Z,92.16
2022-10-05T02:35:34.984Z,92.18
2022-10-05T02:38:11.616Z,91.97
2022-10-05T02:41:06.426Z,91.68
2022-10-05T02:43:56.909Z,91.54
2022-10-05T02:46:49.169Z,91.46
2022-10-05T02:49:37.374Z,91.83
2022-10-05T02:52:41.106Z,91.88
2022-10-05T02:55:52.491Z,91.78
2022-10-05T02:58:25.938Z,91.93
2022-10-05T03:01:06.868Z,91.94
2022-10-05T03:03:43.119Z,92.07
2022-10-05T03:06:21.717Z,91.93
2022-10-05T03:09:03.732Z,92.17
2022-10-05T03:11:45.687Z,91.95
2022-10-05T03:14:26.091Z,92.13
2022-10-05T03:17:25.875Z,92.20
2022-10-05T03:19:54.344Z,92.25
2022-10-05T03:22:44.272Z,92.57
2022-10-05T03:25:30.714Z,92.76
2022-10-05T03:28:07.688Z,92.30
2022-10-05T03:30:51.029Z,92.17
2022-10-05T03:33:34.630Z,92.39
2022-10-05T03:36:06.272Z,92.26
2022-10-05T03:38:52.080Z,92.31
2022-10-05T03:42:00.575Z,92.49
2022-10-05T03:44:31.660Z,92.66
2022-10-05T03:47:26.022Z,92.45
2022-10-05T03:50:19.002Z,92.77
2022-10-05T03:53:01.571Z,92.64
2022-10-05T03:56:30.997Z,92.57
2022-10-05T03:59:20.656Z,93.00
2022-10-05T04:01:56.973Z,92.82
2022-10-05T04:04:33.498Z,92.71
2022-10-05T04:07:02.354Z,92.48
2022-10-05T04:09:36.672Z,92.68
2022-10-05T04:12:28.313Z,92.91
2022-10-05T04:15:06.115Z,92.72
2022-10-05T04:17:43.214Z,92.74
2022-10-05T04:20:25.610Z,92.88
2022-10-05T04:23:25.730Z,92.74
2022-10-05T04:26:00.728Z,92.68
2022-10-05T04:28:43.865Z,92.86
2022-10-05T04:31:21.022Z,92.76
2022-10-05T04:34:00.211Z,92.70
2022-10-05T04:36:49.645Z,92.79
2022-10-05T04:39:23.927Z,93.10
2022-10-05T04:42:12.344Z,93.27
2022-10-05T04:44:48.191Z,92.99
2022-10-05T04:47:37.425Z,92.90
2022-10-05T04:50:17.689Z,92.96
2022-10-05T04:52:59.037Z,93.09
2022-10-05T04:55:40.261Z,93.08
2022-10-05T04:58:32.962Z,93.16
2022-10-05T05:01:35.608Z,92.94
2022-10-05T05:04:32.786Z,92.85
2022-10-05T05:07:31.035Z,92.78
2022-10-05T05:10:26.860Z,92.74
2022-10-05T05:13:04.256Z,92.79
2022-10-05T05:15:44.464Z,92.71
2022-10-05T05:18:31.104Z,92.80
2022-10-05T05:21:05.131Z,92.73
2022-10-05T05:23:59.202Z,92.70
2022-10-05T05:26:39.095Z,92.83
2022-10-05T05:29:43.040Z,92.69
2022-10-05T05:32:13.489Z,92.68
2022-10-05T05:34:47.496Z,92.69
2022-10-05T05:37:32.465Z,92.90
2022-10-05T05:40:12.311Z,93.09
2022-10-05T05:42:52.498Z,92.82
2022-10-05T05:45:32.621Z,92.99
2022-10-05T05:48:05.566Z,93.42
2022-10-05T05:50:42.405Z,93.24
2022-10-05T05:53:18.849Z,93.34
2022-10-05T05:55:52.345Z,93.09
2022-10-05T05:58:21.117Z,92.99
2022-10-05T06:01:04.534Z,92.85
2022-10-05T06:03:50.963Z,92.77
2022-10-05T06:06:24.566Z,92.70
2022-10-05T06:08:57.941Z,92.51
2022-10-05T06:11:54.190Z,92.47
2022-10-05T06:14:35.579Z,92.30
2022-10-05T06:17:17.813Z,92.05
2022-10-05T06:19:48.927Z,92.10
2022-10-05T06:22:23.980Z,91.96
2022-10-05T06:25:12.055Z,91.49
2022-10-05T06:28:02.908Z,91.54
2022-10-05T06:30:52.883Z,91.49
2022-10-05T06:33:45.929Z,91.41
2022-10-05T06:36:15.365Z,91.07
2022-10-05T06:39:01.538Z,91.16
2022-10-05T06:41:57.343Z,90.71
2022-10-05T06:45:11.275Z,91.08
2022-10-05T06:48:11.531Z,90.76
2022-10-05T06:51:04.768Z,91.01
2022-10-05T06:53:57.816Z,91.01
2022-10-05T06:56:43.681Z,90.51
2022-10-05T06:59:12.128Z,90.37
2022-10-05T07:01:51.690Z,90.21
2022-10-05T07:04:48.569Z,89.53
2022-10-05T07:07:29.448Z,89.51
2022-10-05T07:09:57.442Z,88.59
2022-10-05T07:12:41.452Z,88.72
2022-10-05T07:15:16.666Z,88.63
2022-10-05T07:17:47.255Z,87.99
2022-10-05T07:20:17.578Z,87.91
2022-10-05T07:23:07.932Z,87.76
2022-10-05T07:25:50.587Z,87.69
2022-10-05T07:28:51.883Z,87.74
2022-10-05T07:31:36.516Z,87.48
2022-10-05T07:34:30.394Z,87.49
2022-10-05T07:37:37.661Z,87.55
2022-10-05T07:40:12.007Z,87.35
2022-10-05T07:42:50.469Z,87.54
2022-10-05T07:45:39.207Z,87.45
2022-10-05T07:48:18.823Z,87.33
2022-10-05T07:51:13.362Z,87.33
2022-10-05T07:53:56.717Z,87.38
2022-10-05T07:56:41.265Z,87.33
2022-10-05T07:59:31.830Z,87.14
2022-10-05T08:02:13.888Z,86.77
2022-10-05T08:04:56.271Z,86.82
2022-10-05T08:10:19.968Z,85.87
2022-10-05T08:13:05.322Z,85.59
2022-10-05T08:15:43.166Z,85.31
2022-10-05T08:18:38.838Z,85.19
2022-10-05T08:21:12.078Z,84.41
2022-10-05T08:24:02.642Z,83.55
2022-10-05T08:26:50.168Z,82.98
2022-10-05T08:29:20.903Z,81.10
2022-10-05T08:32:03.717Z,81.66
2022-10-05T08:34:44.079Z,80.85
2022-10-05T08:37:11.943Z,81.00
2022-10-05T08:39:48.107Z,77.92
2022-10-05T08:43:10.139Z,77.36
2022-10-05T08:46:05.239Z,76.51
2022-10-05T08:48:58.406Z,77.16
2022-10-05T08:51:52.845Z,77.41
2022-10-05T08:54:54.859Z,77.80
2022-10-05T08:57:22.643Z,77.82
2022-10-05T09:00:20.435Z,75.68
2022-10-05T09:03:00.794Z,76.34
2022-10-05T09:05:58.571Z,76.60
2022-10-05T09:08:32.116Z,74.75
2022-10-05T09:11:18.823Z,73.10
2022-10-05T09:14:06.042Z,73.84
2022-10-05T09:16:55.922Z,73.64
2022-10-05T09:19:42.814Z,73.26
2022-10-05T09:22:30.397Z,72.75
2022-10-05T09:25:13.288Z,71.18
2022-10-05T09:28:33.293Z,71.45
2022-10-05T09:31:46.557Z,71.65
2022-10-05T09:34:42.637Z,70.64
2022-10-05T09:37:22.994Z,71.11
2022-10-05T09:40:13.054Z,71.45
2022-10-05T09:43:01.217Z,71.25
2022-10-05T09:46:21.156Z,71.08
2022-10-05T09:48:51.738Z,71.04
2022-10-05T09:51:44.951Z,70.65
2022-10-05T09:55:01.488Z,70.46
2022-10-05T09:57:53.307Z,68.66
2022-10-05T10:01:09.407Z,67.78
2022-10-05T10:04:10.240Z,66.28
2022-10-05T10:07:05.167Z,65.06
2022-10-05T10:09:54.739Z,64.81
2022-10-05T10:12:48.670Z,64.15
2022-10-05T10:15:41.470Z,64.68
2022-10-05T10:18:24.735Z,65.51
2022-10-05T10:21:07.717Z,65.71
2022-10-05T10:24:09.859Z,64.28
2022-10-05T10:27:06.742Z,63.19
2022-10-05T10:29:43.668Z,62.55
2022-10-05T10:32:49.257Z,62.17
2022-10-05T10:35:32.827Z,60.72
2022-10-05T10:38:23.909Z,61.33
2022-10-05T10:41:04.059Z,61.85
2022-10-05T10:43:53.021Z,62.44
2022-10-05T10:46:31.265Z,61.77
2022-10-05T10:49:42.317Z,60.29
2022-10-05T10:52:12.938Z,59.81
2022-10-05T10:54:43.682Z,59.92
2022-10-05T10:57:19.631Z,59.66
2022-10-05T11:00:02.752Z,59.52
2022-10-05T11:02:42.681Z,58.38
2022-10-05T11:05:32.068Z,58.63
2022-10-05T11:08:15.195Z,59.27
2022-10-05T11:11:18.054Z,59.55
2022-10-05T11:14:10.523Z,58.75
2022-10-05T11:17:02.772Z,59.57
2022-10-05T11:20:09.373Z,59.63
2022-10-05T11:22:59.112Z,58.45
2022-10-05T11:25:56.035Z,58.33
2022-10-05T11:28:42.925Z,58.28
2022-10-05T11:31:25.508Z,58.44
2022-10-05T11:34:31.031Z,58.15
2022-10-05T11:37:23.275Z,57.68
2022-10-05T11:40:14.407Z,57.19
2022-10-05T11:43:05.803Z,58.48
2022-10-05T11:45:54.563Z,57.40
2022-10-05T11:48:47.781Z,57.30
2022-10-05T11:51:41.490Z,56.30
2022-10-05T11:54:09.253Z,56.55
2022-10-05T11:56:44.814Z,56.66
2022-10-05T11:59:39.600Z,54.51
2022-10-05T12:02:44.516Z,52.61
2022-10-05T12:05:24.579Z,53.62
2022-10-05T12:07:58.796Z,53.57
2022-10-05T12:10:43.555Z,53.62
2022-10-05T12:13:31.266Z,53.33
2022-10-05T12:16:01.880Z,54.14
2022-10-05T12:18:29.634Z,54.58
2022-10-05T12:21:27.645Z,54.85
2022-10-05T12:24:26.785Z,54.23
2022-10-05T12:27:17.151Z,53.33
2022-10-05T12:30:11.329Z,53.02
2022-10-05T12:32:59.364Z,52.75
2022-10-05T12:35:49.286Z,52.25
2022-10-05T12:38:33.663Z,52.50
2022-10-05T12:41:13.600Z,52.90
2022-10-05T12:43:50.199Z,53.10
2022-10-05T12:46:45.597Z,53.12
2022-10-05T12:49:35.625Z,52.44
2022-10-05T12:52:20.285Z,51.31
2022-10-05T12:54:58.078Z,50.84
2022-10-05T12:57:53.900Z,51.35
2022-10-05T13:00:23.407Z,51.54
2022-10-05T13:03:04.053Z,51.94
2022-10-05T13:06:02.751Z,51.33
2022-10-05T13:08:48.853Z,50.42
2022-10-05T13:11:24.463Z,51.63
2022-10-05T13:14:02.501Z,52.47
2022-10-05T13:16:33.482Z,52.69
2022-10-05T13:19:26.195Z,53.37
2022-10-05T13:21:59.997Z,54.03
2022-10-05T13:24:59.431Z,53.54
2022-10-05T13:27:35.562Z,52.49
2022-10-05T13:30:16.094Z,52.42
2022-10-05T13:33:06.021Z,52.76
2022-10-05T13:35:55.511Z,53.00
2022-10-05T13:39:03.777Z,52.67
2022-10-05T13:41:40.454Z,52.55
2022-10-05T13:44:23.362Z,53.05
2022-10-05T13:47:00.982Z,51.94
2022-10-05T13:49:48.391Z,51.28
2022-10-05T13:52:35.187Z,51.77
2022-10-05T13:55:21.403Z,51.75
2022-10-05T13:58:06.030Z,51.51
2022-10-05T14:00:44.958Z,51.43
2022-10-05T14:03:35.251Z,52.26
2022-10-05T14:06:13.911Z,52.62
2022-10-05T14:08:52.397Z,52.98
2022-10-05T14:11:35.092Z,53.37
2022-10-05T14:14:23.894Z,53.50
2022-10-05T14:16:55.214Z,53.78
2022-10-05T14:19:23.837Z,54.25
2022-10-05T14:21:59.544Z,54.73
2022-10-05T14:24:45.583Z,54.48
2022-10-05T14:27:19.679Z,53.94
2022-10-05T14:29:57.376Z,54.45
2022-10-05T14:32:30.056Z,54.81
2022-10-05T14:35:18.064Z,55.24
2022-10-05T14:37:57.387Z,55.03
2022-10-05T14:40:33.182Z,55.56
2022-10-05T14:43:16.301Z,55.78
2022-10-05T14:45:53.397Z,55.23
2022-10-05T14:48:22.651Z,54.64
2022-10-05T14:50:50.497Z,55.16
2022-10-05T14:53:21.558Z,55.22
2022-10-05T14:56:17.139Z,54.89
2022-10-05T14:59:00.438Z,54.15
2022-10-05T15:01:36.126Z,54.00
2022-10-05T15:04:32.317Z,54.15
2022-10-05T15:07:26.295Z,53.95
2022-10-05T15:10:39.073Z,54.30
2022-10-05T15:13:18.612Z,54.32
2022-10-05T15:15:58.690Z,54.46
2022-10-05T15:18:43.362Z,54.66
2022-10-05T15:22:08.574Z,54.44
2022-10-05T15:24:43.401Z,54.95
2022-10-05T15:27:39.967Z,55.48
2022-10-05T15:30:12.316Z,55.48
2022-10-05T15:32:48.468Z,55.89
2022-10-05T15:35:45.616Z,56.15
2022-10-05T15:38:26.467Z,54.73
2022-10-05T15:41:12.207Z,55.25
2022-10-05T15:43:50.510Z,55.28
2022-10-05T15:46:24.226Z,55.90
2022-10-05T15:49:22.062Z,57.05
2022-10-05T15:52:11.751Z,57.54
2022-10-05T15:55:00.596Z,58.49
2022-10-05T15:57:37.479Z,59.33
2022-10-05T16:00:18.849Z,59.99
2022-10-05T16:03:17.145Z,60.94
2022-10-05T16:06:12.552Z,61.53
2022-10-05T16:08:55.672Z,62.17
2022-10-05T16:11:45.348Z,62.42
2022-10-05T16:14:40.444Z,63.05
2022-10-05T16:17:27.015Z,63.28
2022-10-05T16:20:03.423Z,64.19
2022-10-05T16:22:51.053Z,64.09
2022-10-05T16:25:45.460Z,65.07
2022-10-05T16:28:31.165Z,66.11
2022-10-05T16:31:39.442Z,66.57
2022-10-05T16:34:26.050Z,66.52
2022-10-05T16:37:09.917Z,67.14
2022-10-05T16:39:52.762Z,68.41
2022-10-05T16:42:35.109Z,68.03
2022-10-05T16:45:22.986Z,68.88
2022-10-05T16:47:59.535Z,69.69
2022-10-05T16:50:57.963Z,69.40
2022-10-05T16:53:40.802Z,69.37
2022-10-05T16:56:22.196Z,70.82
2022-10-05T16:59:23.717Z,71.87
2022-10-05T17:02:15.721Z,71.24
2022-10-05T17:04:54.381Z,71.52
2022-10-05T17:07:28.838Z,71.15
2022-10-05T17:10:03.299Z,73.32
2022-10-05T17:13:13.700Z,72.31
2022-10-05T17:16:00.748Z,74.34
2022-10-05T17:19:10.675Z,74.59
2022-10-05T17:22:02.203Z,75.94
2022-10-05T17:24:49.408Z,76.78
2022-10-05T17:27:35.417Z,75.50
2022-10-05T17:30:23.844Z,77.10
2022-10-05T17:33:04.717Z,76.55
2022-10-05T17:35:41.938Z,76.29
2022-10-05T17:38:17.195Z,75.94
2022-10-05T17:41:00.380Z,76.42
2022-10-05T17:43:30.890Z,76.96
2022-10-05T17:46:01.274Z,77.13
2022-10-05T17:48:54.387Z,78.17
2022-10-05T17:51:46.936Z,77.16
2022-10-05T17:54:46.615Z,78.08
2022-10-05T17:57:22.399Z,77.84
2022-10-05T17:59:53.329Z,78.88
2022-10-05T18:02:36.828Z,79.13
2022-10-05T18:05:16.307Z,79.38
2022-10-05T18:07:50.101Z,79.12
2022-10-05T18:10:29.957Z,79.73
2022-10-05T18:13:00.506Z,80.48
2022-10-05T18:15:28.415Z,81.49
2022-10-05T18:18:32.263Z,81.47
2022-10-05T18:21:15.672Z,81.77
2022-10-05T18:23:58.855Z,82.05
2022-10-05T18:27:02.560Z,81.56
2022-10-05T18:30:02.607Z,81.66
2022-10-05T18:32:47.409Z,81.68
2022-10-05T18:35:27.392Z,81.39
2022-10-05T18:38:32.495Z,81.19
2022-10-05T18:41:21.453Z,81.43
2022-10-05T18:44:20.765Z,81.09
2022-10-05T18:47:25.909Z,81.24
2022-10-05T18:49:59.283Z,81.75
2022-10-05T18:53:03.264Z,81.88
2022-10-05T18:55:34.209Z,82.26
2022-10-05T18:58:26.142Z,82.08
2022-10-05T19:01:00.346Z,81.98
2022-10-05T19:03:37.269Z,81.88
2022-10-05T19:06:29.908Z,82.11
2022-10-05T19:09:15.096Z,82.35
2022-10-05T19:11:55.453Z,82.70
2022-10-05T19:14:51.371Z,82.71
2022-10-05T19:18:06.483Z,82.88
2022-10-05T19:21:03.169Z,82.71
2022-10-05T19:23:33.716Z,82.75
2022-10-05T19:26:18.994Z,82.54
2022-10-05T19:29:02.389Z,82.34
2022-10-05T19:31:41.087Z,82.10
2022-10-05T19:34:31.021Z,81.89
2022-10-05T19:37:01.862Z,82.07
2022-10-05T19:39:54.173Z,82.25
2022-10-05T19:42:47.255Z,82.71
2022-10-05T19:45:26.153Z,82.97
2022-10-05T19:48:15.959Z,82.68
2022-10-05T19:50:59.393Z,82.58
2022-10-05T19:53:37.049Z,82.39
2022-10-05T19:56:22.189Z,82.18
2022-10-05T19:58:54.567Z,82.24
2022-10-05T20:01:24.389Z,82.11
2022-10-05T20:03:54.146Z,81.85
2022-10-05T20:06:39.398Z,82.46
2022-10-05T20:09:25.434Z,82.44
2022-10-05T20:11:56.843Z,82.63
2022-10-05T20:14:33.447Z,82.78
2022-10-05T20:17:45.650Z,83.06
2022-10-05T20:20:38.327Z,83.52
2022-10-05T20:23:38.924Z,83.55
2022-10-05T20:26:25.584Z,83.32
2022-10-05T20:28:53.417Z,83.14
2022-10-05T20:31:23.035Z,82.98
2022-10-05T20:33:50.935Z,83.06
2022-10-05T20:36:18.809Z,82.96
2022-10-05T20:38:47.529Z,83.23
2022-10-05T20:41:16.604Z,83.09
2022-10-05T20:43:44.551Z,82.88
2022-10-05T20:46:12.989Z,82.82
2022-10-05T20:48:40.768Z,82.95
2022-10-05T20:51:08.804Z,83.04
2022-10-05T20:53:37.496Z,83.05
2022-10-05T20:56:05.663Z,84.14
2022-10-05T20:58:33.409Z,83.39
2022-10-05T21:01:16.761Z,83.07
2022-10-05T21:03:44.820Z,83.20
2022-10-05T21:06:12.995Z,83.34
2022-10-05T21:08:40.831Z,83.12
2022-10-05T21:11:11.449Z,83.27
2022-10-05T21:13:45.373Z,83.34
2022-10-05T21:16:18.751Z,83.25
2022-10-05T21:18:48.792Z,83.70
2022-10-05T21:21:17.962Z,83.69
2022-10-05T21:23:47.216Z,83.57
2022-10-05T21:26:15.874Z,83.71
2022-10-05T21:28:44.003Z,83.58
2022-10-05T21:31:12.070Z,83.48
2022-10-05T21:33:39.959Z,83.40
2022-10-05T21:36:07.813Z,83.45
2022-10-05T21:38:35.640Z,83.87
2022-10-05T21:41:04.013Z,84.00
2022-10-05T21:43:31.931Z,83.96
2022-10-05T21:46:01.444Z,84.13
2022-10-05T21:48:31.472Z,84.35
2022-10-05T21:51:00.690Z,84.49
2022-10-05T21:53:33.959Z,84.10
2022-10-05T21:56:05.323Z,85.04
2022-10-05T21:58:33.197Z,84.56
2022-10-05T22:01:01.146Z,84.78
2022-10-05T22:03:30.212Z,84.87
2022-10-05T22:05:58.135Z,84.75
2022-10-05T22:08:31.295Z,84.88
2022-10-05T22:11:00.834Z,85.06
2022-10-05T22:13:42.045Z,84.74
2022-10-05T22:16:10.757Z,85.39
2022-10-05T22:18:39.192Z,84.99
2022-10-05T22:21:08.498Z,85.17
2022-10-05T22:23:36.444Z,85.67
2022-10-05T22:26:06.477Z,85.33
2022-10-05T22:28:36.605Z,85.55
2022-10-05T22:31:06.717Z,85.59
2022-10-05T22:33:34.493Z,85.40
2022-10-05T22:36:03.434Z,85.50
2022-10-05T22:38:31.707Z,85.45
2022-10-05T22:41:00.109Z,85.65
2022-10-05T22:43:28.073Z,85.74
2022-10-05T22:45:56.330Z,85.46
2022-10-05T22:48:24.525Z,85.82
2022-10-05T22:50:52.389Z,85.56
2022-10-05T22:53:20.281Z,86.05
2022-10-05T22:55:48.137Z,85.69
2022-10-05T22:58:16.045Z,85.47
2022-10-05T23:00:57.960Z,85.69
2022-10-05T23:03:26.265Z,85.54
2022-10-05T23:06:09.213Z,85.59
2022-10-05T23:08:38.373Z,85.63
2022-10-05T23:11:08.785Z,85.37
2022-10-05T23:13:36.802Z,85.36
2022-10-05T23:16:12.290Z,85.37
2022-10-05T23:18:40.603Z,85.37
2022-10-05T23:21:10.728Z,85.25
2022-10-05T23:23:40.724Z,85.08
2022-10-05T23:26:11.024Z,85.02
2022-10-05T23:28:46.532Z,85.05
2022-10-05T23:31:20.183Z,85.18
2022-10-05T23:33:48.052Z,85.06
2022-10-05T23:36:18.696Z,85.07
2022-10-05T23:38:47.573Z,84.89
2022-10-05T23:41:16.300Z,85.27
2022-10-05T23:43:44.414Z,85.02
2022-10-05T23:46:13.431Z,85.44
2022-10-05T23:48:41.357Z,85.46
2022-10-05T23:51:11.412Z,85.39
2022-10-05T23:53:39.490Z,85.47
2022-10-05T23:56:07.733Z,85.41
2022-10-05T23:58:35.695Z,85.43
